Segundo, Colorado
Current Conditions -  °F | °C
As of 12:54 AM on Thursday 23 Oct 2014 (Local Time) from KTAD Reporting Station
Clear Clear  
Wind Chill: 42°   Ceiling: Unl
Heat Index: 47°   Visibility: 10mi
Dew Point: 40°   Wind: 10mph
Humidity: 77%   Direction: 280°W
Pressure: 30.17"   Gusts: NA
Location:  37.1661°N, 104.486°W
Report Text: KTAD 230654Z AUTO 28009KT 10SM CLR 08/04 A3017 RMK AO2 SLP163 T00830044 402170083
Loading
Personal Weather Stations






























Interactive Weather Map
Tropical Storm Tracking
New forecast layout! Learn more

10-Day Weather Forecast

Advertisements
Track Severe Weather on mobile